sensor_id;sensor_type;location;lat;lon;timestamp;pressure;altitude;pressure_sealevel;temperature
76394;BMP180;65216;51.090;-115.352;2023-04-01T00:01:15;85796.80;;;22.20
76394;BMP180;65216;51.090;-115.352;2023-04-01T00:03:43;85801.80;;;22.20
76394;BMP180;65216;51.090;-115.352;2023-04-01T00:06:16;85794.60;;;22.12
76394;BMP180;65216;51.090;-115.352;2023-04-01T00:08:43;85798.00;;;22.10
76394;BMP180;65216;51.090;-115.352;2023-04-01T00:11:11;85795.40;;;22.10
76394;BMP180;65216;51.090;-115.352;2023-04-01T00:13:38;85796.40;;;22.10
76394;BMP180;65216;51.090;-115.352;2023-04-01T00:16:07;85793.40;;;22.10
76394;BMP180;65216;51.090;-115.352;2023-04-01T00:18:35;85776.40;;;22.10
76394;BMP180;65216;51.090;-115.352;2023-04-01T00:21:06;85791.60;;;22.10
76394;BMP180;65216;51.090;-115.352;2023-04-01T00:23:34;85782.80;;;22.10
76394;BMP180;65216;51.090;-115.352;2023-04-01T00:26:02;85795.20;;;22.08
76394;BMP180;65216;51.090;-115.352;2023-04-01T00:28:30;85781.40;;;22.04
76394;BMP180;65216;51.090;-115.352;2023-04-01T00:30:58;85773.20;;;22.00
76394;BMP180;65216;51.090;-115.352;2023-04-01T00:33:25;85770.40;;;22.00
76394;BMP180;65216;51.090;-115.352;2023-04-01T00:35:54;85777.60;;;22.00
76394;BMP180;65216;51.090;-115.352;2023-04-01T00:38:21;85772.80;;;22.00
76394;BMP180;65216;51.090;-115.352;2023-04-01T00:40:48;85782.60;;;22.00
76394;BMP180;65216;51.090;-115.352;2023-04-01T00:43:20;85758.00;;;22.00
76394;BMP180;65216;51.090;-115.352;2023-04-01T00:45:49;85784.20;;;22.00
76394;BMP180;65216;51.090;-115.352;2023-04-01T00:48:25;85758.60;;;22.00
76394;BMP180;65216;51.090;-115.352;2023-04-01T00:51:17;85750.40;;;21.98
76394;BMP180;65216;51.090;-115.352;2023-04-01T00:53:53;85755.80;;;21.96
76394;BMP180;65216;51.090;-115.352;2023-04-01T00:56:39;85759.40;;;21.94
76394;BMP180;65216;51.090;-115.352;2023-04-01T00:59:30;85767.20;;;21.90
76394;BMP180;65216;51.090;-115.352;2023-04-01T01:02:04;85763.80;;;21.90
76394;BMP180;65216;51.090;-115.352;2023-04-01T01:04:35;85756.80;;;21.90
76394;BMP180;65216;51.090;-115.352;2023-04-01T01:10:29;85766.60;;;21.90
76394;BMP180;65216;51.090;-115.352;2023-04-01T01:13:26;85766.20;;;21.90
76394;BMP180;65216;51.090;-115.352;2023-04-01T01:16:27;85768.80;;;21.90
76394;BMP180;65216;51.090;-115.352;2023-04-01T01:19:43;85764.60;;;21.90
76394;BMP180;65216;51.090;-115.352;2023-04-01T01:31:37;85759.20;;;21.80
76394;BMP180;65216;51.090;-115.352;2023-04-01T01:37:01;85752.60;;;21.80
76394;BMP180;65216;51.090;-115.352;2023-04-01T01:39:35;85764.60;;;21.80
76394;BMP180;65216;51.090;-115.352;2023-04-01T01:42:07;85753.40;;;21.80
76394;BMP180;65216;51.090;-115.352;2023-04-01T01:44:39;85753.20;;;21.80
76394;BMP180;65216;51.090;-115.352;2023-04-01T01:47:09;85729.20;;;21.80
76394;BMP180;65216;51.090;-115.352;2023-04-01T01:49:39;85733.40;;;21.80
76394;BMP180;65216;51.090;-115.352;2023-04-01T01:52:07;85750.40;;;21.78
76394;BMP180;65216;51.090;-115.352;2023-04-01T01:54:34;85732.00;;;21.70
76394;BMP180;65216;51.090;-115.352;2023-04-01T01:57:10;85747.60;;;21.70
76394;BMP180;65216;51.090;-115.352;2023-04-01T01:59:40;85749.00;;;21.70
76394;BMP180;65216;51.090;-115.352;2023-04-01T02:02:12;85743.60;;;21.70
76394;BMP180;65216;51.090;-115.352;2023-04-01T02:04:43;85738.80;;;21.70
76394;BMP180;65216;51.090;-115.352;2023-04-01T02:07:33;85736.20;;;21.70
76394;BMP180;65216;51.090;-115.352;2023-04-01T02:10:03;85749.00;;;21.70
76394;BMP180;65216;51.090;-115.352;2023-04-01T02:12:35;85744.20;;;21.70
76394;BMP180;65216;51.090;-115.352;2023-04-01T02:15:10;85757.00;;;21.70
76394;BMP180;65216;51.090;-115.352;2023-04-01T02:17:46;85750.20;;;21.70
76394;BMP180;65216;51.090;-115.352;2023-04-01T02:20:22;85747.00;;;21.70
76394;BMP180;65216;51.090;-115.352;2023-04-01T02:22:54;85740.40;;;21.70
76394;BMP180;65216;51.090;-115.352;2023-04-01T02:25:35;85740.60;;;21.68
76394;BMP180;65216;51.090;-115.352;2023-04-01T02:28:06;85734.60;;;21.66
76394;BMP180;65216;51.090;-115.352;2023-04-01T02:30:39;85738.00;;;21.60
76394;BMP180;65216;51.090;-115.352;2023-04-01T02:33:08;85736.00;;;21.60
76394;BMP180;65216;51.090;-115.352;2023-04-01T02:35:37;85747.80;;;21.60
76394;BMP180;65216;51.090;-115.352;2023-04-01T02:38:08;85745.00;;;21.60
76394;BMP180;65216;51.090;-115.352;2023-04-01T02:40:48;85740.80;;;21.60
76394;BMP180;65216;51.090;-115.352;2023-04-01T02:43:17;85750.60;;;21.60
76394;BMP180;65216;51.090;-115.352;2023-04-01T02:45:48;85748.60;;;21.60
76394;BMP180;65216;51.090;-115.352;2023-04-01T02:48:15;85768.40;;;21.60
76394;BMP180;65216;51.090;-115.352;2023-04-01T02:50:42;85742.00;;;21.60
76394;BMP180;65216;51.090;-115.352;2023-04-01T02:53:09;85761.20;;;21.60
76394;BMP180;65216;51.090;-115.352;2023-04-01T02:55:38;85748.60;;;21.60
76394;BMP180;65216;51.090;-115.352;2023-04-01T02:58:05;85759.40;;;21.60
76394;BMP180;65216;51.090;-115.352;2023-04-01T03:00:32;85767.60;;;21.60
76394;BMP180;65216;51.090;-115.352;2023-04-01T03:03:02;85774.20;;;21.56
76394;BMP180;65216;51.090;-115.352;2023-04-01T03:05:29;85779.20;;;21.52
76394;BMP180;65216;51.090;-115.352;2023-04-01T03:07:56;85786.40;;;21.50
76394;BMP180;65216;51.090;-115.352;2023-04-01T03:10:24;85791.60;;;21.50
76394;BMP180;65216;51.090;-115.352;2023-04-01T03:12:51;85779.80;;;21.50
76394;BMP180;65216;51.090;-115.352;2023-04-01T03:15:18;85782.80;;;21.50
76394;BMP180;65216;51.090;-115.352;2023-04-01T03:17:46;85788.00;;;21.50
76394;BMP180;65216;51.090;-115.352;2023-04-01T03:20:16;85793.40;;;21.50
76394;BMP180;65216;51.090;-115.352;2023-04-01T03:22:43;85787.60;;;21.50
76394;BMP180;65216;51.090;-115.352;2023-04-01T03:25:11;85779.80;;;21.50
76394;BMP180;65216;51.090;-115.352;2023-04-01T03:27:39;85792.40;;;21.46
76394;BMP180;65216;51.090;-115.352;2023-04-01T03:30:07;85798.00;;;21.46
76394;BMP180;65216;51.090;-115.352;2023-04-01T03:32:35;85790.80;;;21.40
76394;BMP180;65216;51.090;-115.352;2023-04-01T03:35:03;85787.20;;;21.40
76394;BMP180;65216;51.090;-115.352;2023-04-01T03:37:31;85785.00;;;21.42
76394;BMP180;65216;51.090;-115.352;2023-04-01T03:39:58;85794.20;;;21.40
76394;BMP180;65216;51.090;-115.352;2023-04-01T03:42:25;85799.20;;;21.40
76394;BMP180;65216;51.090;-115.352;2023-04-01T03:44:53;85800.40;;;21.40
76394;BMP180;65216;51.090;-115.352;2023-04-01T03:47:20;85806.80;;;21.40
76394;BMP180;65216;51.090;-115.352;2023-04-01T03:49:47;85804.60;;;21.40
76394;BMP180;65216;51.090;-115.352;2023-04-01T03:52:14;85787.40;;;21.40
76394;BMP180;65216;51.090;-115.352;2023-04-01T03:54:41;85795.40;;;21.40
76394;BMP180;65216;51.090;-115.352;2023-04-01T03:57:09;85795.60;;;21.40
76394;BMP180;65216;51.090;-115.352;2023-04-01T03:59:36;85795.40;;;21.40
76394;BMP180;65216;51.090;-115.352;2023-04-01T04:02:03;85799.60;;;21.40
76394;BMP180;65216;51.090;-115.352;2023-04-01T04:04:32;85782.60;;;21.40
76394;BMP180;65216;51.090;-115.352;2023-04-01T04:07:02;85805.40;;;21.38
76394;BMP180;65216;51.090;-115.352;2023-04-01T04:09:31;85794.00;;;21.30
76394;BMP180;65216;51.090;-115.352;2023-04-01T04:12:02;85803.40;;;21.30
76394;BMP180;65216;51.090;-115.352;2023-04-01T04:14:29;85799.20;;;21.30
76394;BMP180;65216;51.090;-115.352;2023-04-01T04:16:56;85806.00;;;21.30
76394;BMP180;65216;51.090;-115.352;2023-04-01T04:19:30;85800.20;;;21.30
76394;BMP180;65216;51.090;-115.352;2023-04-01T04:22:00;85805.20;;;21.30
76394;BMP180;65216;51.090;-115.352;2023-04-01T04:24:30;85799.60;;;21.30
76394;BMP180;65216;51.090;-115.352;2023-04-01T04:26:57;85802.40;;;21.26
76394;BMP180;65216;51.090;-115.352;2023-04-01T04:29:24;85801.40;;;21.20
76394;BMP180;65216;51.090;-115.352;2023-04-01T04:31:52;85798.60;;;21.20
76394;BMP180;65216;51.090;-115.352;2023-04-01T04:34:19;85789.80;;;21.20
76394;BMP180;65216;51.090;-115.352;2023-04-01T04:36:46;85789.60;;;21.20
76394;BMP180;65216;51.090;-115.352;2023-04-01T04:39:14;85785.80;;;21.20
76394;BMP180;65216;51.090;-115.352;2023-04-01T04:41:42;85773.00;;;21.20
76394;BMP180;65216;51.090;-115.352;2023-04-01T04:44:12;85771.20;;;21.20
76394;BMP180;65216;51.090;-115.352;2023-04-01T04:46:38;85778.80;;;21.20
76394;BMP180;65216;51.090;-115.352;2023-04-01T04:49:06;85777.00;;;21.20
76394;BMP180;65216;51.090;-115.352;2023-04-01T04:51:36;85775.20;;;21.20
76394;BMP180;65216;51.090;-115.352;2023-04-01T04:54:05;85783.60;;;21.18
76394;BMP180;65216;51.090;-115.352;2023-04-01T04:56:32;85772.80;;;21.14
76394;BMP180;65216;51.090;-115.352;2023-04-01T04:59:00;85765.60;;;21.10
76394;BMP180;65216;51.090;-115.352;2023-04-01T05:01:30;85768.60;;;21.10
76394;BMP180;65216;51.090;-115.352;2023-04-01T05:03:57;85771.60;;;21.10
76394;BMP180;65216;51.090;-115.352;2023-04-01T05:06:24;85775.80;;;21.10
76394;BMP180;65216;51.090;-115.352;2023-04-01T05:08:56;85774.80;;;21.10
76394;BMP180;65216;51.090;-115.352;2023-04-01T05:11:24;85773.80;;;21.10
76394;BMP180;65216;51.090;-115.352;2023-04-01T05:13:52;85767.00;;;21.10
76394;BMP180;65216;51.090;-115.352;2023-04-01T05:16:21;85758.20;;;21.10
76394;BMP180;65216;51.090;-115.352;2023-04-01T05:18:51;85761.20;;;21.10
76394;BMP180;65216;51.090;-115.352;2023-04-01T05:21:18;85755.20;;;21.10
76394;BMP180;65216;51.090;-115.352;2023-04-01T05:23:45;85752.60;;;21.10
76394;BMP180;65216;51.090;-115.352;2023-04-01T05:26:14;85749.40;;;21.10
76394;BMP180;65216;51.090;-115.352;2023-04-01T05:28:42;85741.80;;;21.10
76394;BMP180;65216;51.090;-115.352;2023-04-01T05:31:09;85734.40;;;21.10
76394;BMP180;65216;51.090;-115.352;2023-04-01T05:33:36;85738.80;;;21.10
76394;BMP180;65216;51.090;-115.352;2023-04-01T05:36:12;85739.00;;;21.10
76394;BMP180;65216;51.090;-115.352;2023-04-01T05:38:43;85745.60;;;21.10
76394;BMP180;65216;51.090;-115.352;2023-04-01T05:41:17;85740.20;;;21.10
76394;BMP180;65216;51.090;-115.352;2023-04-01T05:43:44;85730.20;;;21.10
76394;BMP180;65216;51.090;-115.352;2023-04-01T05:46:12;85727.40;;;21.10
76394;BMP180;65216;51.090;-115.352;2023-04-01T05:48:39;85727.00;;;21.10
76394;BMP180;65216;51.090;-115.352;2023-04-01T05:51:06;85732.20;;;21.10
76394;BMP180;65216;51.090;-115.352;2023-04-01T05:53:33;85727.20;;;21.10
76394;BMP180;65216;51.090;-115.352;2023-04-01T05:56:04;85726.60;;;21.10
76394;BMP180;65216;51.090;-115.352;2023-04-01T05:58:31;85734.20;;;21.10
76394;BMP180;65216;51.090;-115.352;2023-04-01T06:01:10;85735.00;;;21.10
76394;BMP180;65216;51.090;-115.352;2023-04-01T06:03:37;85727.40;;;21.10
76394;BMP180;65216;51.090;-115.352;2023-04-01T06:06:11;85723.40;;;21.10
76394;BMP180;65216;51.090;-115.352;2023-04-01T06:08:41;85719.20;;;21.10
76394;BMP180;65216;51.090;-115.352;2023-04-01T06:20:42;85717.00;;;21.00
76394;BMP180;65216;51.090;-115.352;2023-04-01T06:23:22;85723.60;;;21.10
76394;BMP180;65216;51.090;-115.352;2023-04-01T06:40:48;85721.20;;;21.10
76394;BMP180;65216;51.090;-115.352;2023-04-01T06:43:21;85723.00;;;21.06
76394;BMP180;65216;51.090;-115.352;2023-04-01T06:55:12;85714.00;;;21.10
76394;BMP180;65216;51.090;-115.352;2023-04-01T06:57:47;85710.80;;;21.10
76394;BMP180;65216;51.090;-115.352;2023-04-01T07:00:54;85707.60;;;21.10
76394;BMP180;65216;51.090;-115.352;2023-04-01T07:03:51;85705.80;;;21.10
76394;BMP180;65216;51.090;-115.352;2023-04-01T07:06:35;85707.40;;;21.08
76394;BMP180;65216;51.090;-115.352;2023-04-01T07:09:10;85708.60;;;21.06
76394;BMP180;65216;51.090;-115.352;2023-04-01T07:11:40;85694.80;;;21.00
76394;BMP180;65216;51.090;-115.352;2023-04-01T07:14:37;85710.60;;;21.00
76394;BMP180;65216;51.090;-115.352;2023-04-01T07:17:20;85692.60;;;21.00
76394;BMP180;65216;51.090;-115.352;2023-04-01T07:25:30;85696.60;;;21.00
76394;BMP180;65216;51.090;-115.352;2023-04-01T07:28:20;85689.20;;;21.02
76394;BMP180;65216;51.090;-115.352;2023-04-01T07:36:45;85691.60;;;21.08
76394;BMP180;65216;51.090;-115.352;2023-04-01T07:39:38;85695.80;;;21.02
76394;BMP180;65216;51.090;-115.352;2023-04-01T07:45:31;85697.80;;;21.04
76394;BMP180;65216;51.090;-115.352;2023-04-01T07:54:09;85695.60;;;21.00
76394;BMP180;65216;51.090;-115.352;2023-04-01T07:56:57;85695.20;;;21.00
76394;BMP180;65216;51.090;-115.352;2023-04-01T08:17:20;85701.00;;;21.00
76394;BMP180;65216;51.090;-115.352;2023-04-01T08:20:14;85703.80;;;21.00
76394;BMP180;65216;51.090;-115.352;2023-04-01T08:25:43;85696.80;;;21.00
76394;BMP180;65216;51.090;-115.352;2023-04-01T08:28:41;85695.80;;;21.00
76394;BMP180;65216;51.090;-115.352;2023-04-01T08:34:14;85697.60;;;21.00
76394;BMP180;65216;51.090;-115.352;2023-04-01T08:36:54;85704.60;;;21.00
76394;BMP180;65216;51.090;-115.352;2023-04-01T08:39:51;85698.40;;;21.00
76394;BMP180;65216;51.090;-115.352;2023-04-01T08:42:59;85703.20;;;21.00
76394;BMP180;65216;51.090;-115.352;2023-04-01T08:45:43;85702.00;;;21.00
76394;BMP180;65216;51.090;-115.352;2023-04-01T08:58:06;85712.00;;;21.00
76394;BMP180;65216;51.090;-115.352;2023-04-01T09:07:44;85705.80;;;21.00
76394;BMP180;65216;51.090;-115.352;2023-04-01T09:25:29;85704.00;;;20.98
76394;BMP180;65216;51.090;-115.352;2023-04-01T09:40:14;85714.40;;;20.90
76394;BMP180;65216;51.090;-115.352;2023-04-01T09:51:38;85718.20;;;20.90
76394;BMP180;65216;51.090;-115.352;2023-04-01T09:54:24;85707.00;;;20.90
76394;BMP180;65216;51.090;-115.352;2023-04-01T10:13:07;85703.20;;;20.90
76394;BMP180;65216;51.090;-115.352;2023-04-01T10:16:09;85696.60;;;20.90
76394;BMP180;65216;51.090;-115.352;2023-04-01T10:34:20;85706.20;;;20.90
76394;BMP180;65216;51.090;-115.352;2023-04-01T10:37:02;85703.40;;;20.90
76394;BMP180;65216;51.090;-115.352;2023-04-01T10:56:54;85715.00;;;20.70
76394;BMP180;65216;51.090;-115.352;2023-04-01T11:52:25;85671.80;;;20.50
76394;BMP180;65216;51.090;-115.352;2023-04-01T11:55:28;85659.80;;;20.50
76394;BMP180;65216;51.090;-115.352;2023-04-01T11:58:31;85655.20;;;20.40
76394;BMP180;65216;51.090;-115.352;2023-04-01T12:06:48;85649.80;;;20.40
76394;BMP180;65216;51.090;-115.352;2023-04-01T12:16:19;85647.00;;;20.40
76394;BMP180;65216;51.090;-115.352;2023-04-01T12:19:09;85639.40;;;20.40
76394;BMP180;65216;51.090;-115.352;2023-04-01T12:24:42;85634.60;;;20.40
76394;BMP180;65216;51.090;-115.352;2023-04-01T12:30:39;85628.20;;;20.40
76394;BMP180;65216;51.090;-115.352;2023-04-01T12:33:51;85625.80;;;20.38
76394;BMP180;65216;51.090;-115.352;2023-04-01T12:36:31;85631.80;;;20.34
76394;BMP180;65216;51.090;-115.352;2023-04-01T12:50:42;85628.00;;;20.30
76394;BMP180;65216;51.090;-115.352;2023-04-01T12:57:12;85635.60;;;20.30
76394;BMP180;65216;51.090;-115.352;2023-04-01T13:00:12;85633.80;;;20.30
76394;BMP180;65216;51.090;-115.352;2023-04-01T13:19:31;85613.60;;;20.30
76394;BMP180;65216;51.090;-115.352;2023-04-01T13:22:20;85619.20;;;20.30
76394;BMP180;65216;51.090;-115.352;2023-04-01T13:25:10;85619.40;;;20.30
76394;BMP180;65216;51.090;-115.352;2023-04-01T13:27:56;85620.00;;;20.30
76394;BMP180;65216;51.090;-115.352;2023-04-01T13:30:46;85616.60;;;20.30
76394;BMP180;65216;51.090;-115.352;2023-04-01T13:42:26;85606.20;;;20.30
76394;BMP180;65216;51.090;-115.352;2023-04-01T13:44:42;85603.80;;;20.30
76394;BMP180;65216;51.090;-115.352;2023-04-01T13:47:41;85600.00;;;20.30
76394;BMP180;65216;51.090;-115.352;2023-04-01T13:51:03;85601.00;;;20.30
76394;BMP180;65216;51.090;-115.352;2023-04-01T14:12:09;85608.60;;;20.30
76394;BMP180;65216;51.090;-115.352;2023-04-01T14:38:28;85572.60;;;20.30
76394;BMP180;65216;51.090;-115.352;2023-04-01T14:49:53;85586.60;;;20.30
76394;BMP180;65216;51.090;-115.352;2023-04-01T14:52:32;85574.20;;;20.30
76394;BMP180;65216;51.090;-115.352;2023-04-01T15:00:54;85571.20;;;20.32
76394;BMP180;65216;51.090;-115.352;2023-04-01T15:09:40;85567.80;;;20.40
76394;BMP180;65216;51.090;-115.352;2023-04-01T15:21:16;85545.20;;;20.46
76394;BMP180;65216;51.090;-115.352;2023-04-01T15:24:03;85549.80;;;20.48
76394;BMP180;65216;51.090;-115.352;2023-04-01T15:32:52;85531.00;;;20.50
76394;BMP180;65216;51.090;-115.352;2023-04-01T15:50:04;85495.00;;;20.60
76394;BMP180;65216;51.090;-115.352;2023-04-01T15:59:17;85485.80;;;20.60
76394;BMP180;65216;51.090;-115.352;2023-04-01T16:21:54;85458.00;;;20.80
76394;BMP180;65216;51.090;-115.352;2023-04-01T16:29:48;85450.40;;;20.90
76394;BMP180;65216;51.090;-115.352;2023-04-01T16:35:57;85449.00;;;20.90
76394;BMP180;65216;51.090;-115.352;2023-04-01T16:41:33;85432.60;;;20.90
76394;BMP180;65216;51.090;-115.352;2023-04-01T16:44:31;85434.80;;;21.00
76394;BMP180;65216;51.090;-115.352;2023-04-01T16:47:27;85434.60;;;21.00
76394;BMP180;65216;51.090;-115.352;2023-04-01T16:50:25;85430.60;;;21.00
76394;BMP180;65216;51.090;-115.352;2023-04-01T16:56:25;85416.20;;;21.00
76394;BMP180;65216;51.090;-115.352;2023-04-01T16:59:01;85420.20;;;21.02
76394;BMP180;65216;51.090;-115.352;2023-04-01T17:07:47;85415.00;;;21.10
76394;BMP180;65216;51.090;-115.352;2023-04-01T17:25:52;85399.80;;;21.10
76394;BMP180;65216;51.090;-115.352;2023-04-01T17:34:06;85393.20;;;21.16
76394;BMP180;65216;51.090;-115.352;2023-04-01T17:37:05;85383.40;;;21.14
76394;BMP180;65216;51.090;-115.352;2023-04-01T17:42:46;85375.20;;;21.20
76394;BMP180;65216;51.090;-115.352;2023-04-01T17:45:55;85381.80;;;21.20
76394;BMP180;65216;51.090;-115.352;2023-04-01T17:52:02;85381.20;;;21.20
76394;BMP180;65216;51.090;-115.352;2023-04-01T17:57:46;85364.80;;;21.20
76394;BMP180;65216;51.090;-115.352;2023-04-01T18:00:35;85356.80;;;21.20
76394;BMP180;65216;51.090;-115.352;2023-04-01T18:09:00;85362.80;;;21.20
76394;BMP180;65216;51.090;-115.352;2023-04-01T18:21:13;85356.40;;;21.20
76394;BMP180;65216;51.090;-115.352;2023-04-01T18:24:22;85352.00;;;21.20
76394;BMP180;65216;51.090;-115.352;2023-04-01T18:27:16;85341.20;;;21.20
76394;BMP180;65216;51.090;-115.352;2023-04-01T18:30:03;85329.80;;;21.20
76394;BMP180;65216;51.090;-115.352;2023-04-01T18:41:15;85319.40;;;21.30
76394;BMP180;65216;51.090;-115.352;2023-04-01T18:52:41;85296.20;;;21.30
76394;BMP180;65216;51.090;-115.352;2023-04-01T18:55:49;85287.60;;;21.30
76394;BMP180;65216;51.090;-115.352;2023-04-01T19:01:48;85303.40;;;21.40
76394;BMP180;65216;51.090;-115.352;2023-04-01T19:06:58;85281.60;;;21.40
76394;BMP180;65216;51.090;-115.352;2023-04-01T19:09:29;85275.80;;;21.40
76394;BMP180;65216;51.090;-115.352;2023-04-01T19:17:56;85279.00;;;21.50
76394;BMP180;65216;51.090;-115.352;2023-04-01T19:21:35;85278.00;;;21.50
76394;BMP180;65216;51.090;-115.352;2023-04-01T19:26:57;85283.00;;;21.50
76394;BMP180;65216;51.090;-115.352;2023-04-01T19:33:08;85293.40;;;21.50
76394;BMP180;65216;51.090;-115.352;2023-04-01T19:41:20;85285.40;;;21.50
76394;BMP180;65216;51.090;-115.352;2023-04-01T19:44:00;85289.60;;;21.50
76394;BMP180;65216;51.090;-115.352;2023-04-01T19:46:45;85316.00;;;21.50
76394;BMP180;65216;51.090;-115.352;2023-04-01T19:52:52;85306.00;;;21.50
76394;BMP180;65216;51.090;-115.352;2023-04-01T19:56:31;85305.60;;;21.50
76394;BMP180;65216;51.090;-115.352;2023-04-01T20:04:53;85334.80;;;21.50
76394;BMP180;65216;51.090;-115.352;2023-04-01T20:07:31;85323.00;;;21.50
76394;BMP180;65216;51.090;-115.352;2023-04-01T20:10:22;85325.60;;;21.50
76394;BMP180;65216;51.090;-115.352;2023-04-01T20:13:18;85315.80;;;21.50
76394;BMP180;65216;51.090;-115.352;2023-04-01T20:16:16;85327.00;;;21.50
76394;BMP180;65216;51.090;-115.352;2023-04-01T20:18:58;85310.80;;;21.50
76394;BMP180;65216;51.090;-115.352;2023-04-01T20:21:46;85294.40;;;21.50
76394;BMP180;65216;51.090;-115.352;2023-04-01T20:24:41;85313.40;;;21.50
76394;BMP180;65216;51.090;-115.352;2023-04-01T20:29:56;85305.20;;;21.50
76394;BMP180;65216;51.090;-115.352;2023-04-01T20:32:45;85285.00;;;21.50
76394;BMP180;65216;51.090;-115.352;2023-04-01T20:38:22;85274.80;;;21.50
76394;BMP180;65216;51.090;-115.352;2023-04-01T20:41:20;85274.00;;;21.50
76394;BMP180;65216;51.090;-115.352;2023-04-01T20:44:13;85298.80;;;21.56
76394;BMP180;65216;51.090;-115.352;2023-04-01T20:52:42;85282.40;;;21.60
76394;BMP180;65216;51.090;-115.352;2023-04-01T21:09:31;85285.00;;;21.60
76394;BMP180;65216;51.090;-115.352;2023-04-01T21:21:35;85275.20;;;21.66
76394;BMP180;65216;51.090;-115.352;2023-04-01T21:33:15;85262.20;;;21.70
76394;BMP180;65216;51.090;-115.352;2023-04-01T22:02:07;85235.00;;;21.78
76394;BMP180;65216;51.090;-115.352;2023-04-01T22:05:11;85243.00;;;21.80
76394;BMP180;65216;51.090;-115.352;2023-04-01T22:08:01;85223.60;;;21.78
76394;BMP180;65216;51.090;-115.352;2023-04-01T22:16:32;85240.40;;;21.80
76394;BMP180;65216;51.090;-115.352;2023-04-01T22:19:24;85224.00;;;21.80
76394;BMP180;65216;51.090;-115.352;2023-04-01T22:25:14;85252.40;;;21.80
76394;BMP180;65216;51.090;-115.352;2023-04-01T22:27:49;85264.20;;;21.80
76394;BMP180;65216;51.090;-115.352;2023-04-01T22:44:58;85255.40;;;21.70
76394;BMP180;65216;51.090;-115.352;2023-04-01T22:56:07;85253.60;;;21.70
76394;BMP180;65216;51.090;-115.352;2023-04-01T23:01:43;85262.20;;;21.70
76394;BMP180;65216;51.090;-115.352;2023-04-01T23:04:17;85241.60;;;21.70
76394;BMP180;65216;51.090;-115.352;2023-04-01T23:09:53;85259.60;;;21.70
76394;BMP180;65216;51.090;-115.352;2023-04-01T23:12:24;85258.00;;;21.70
76394;BMP180;65216;51.090;-115.352;2023-04-01T23:14:59;85251.00;;;21.70
76394;BMP180;65216;51.090;-115.352;2023-04-01T23:18:01;85264.20;;;21.70
76394;BMP180;65216;51.090;-115.352;2023-04-01T23:23:53;85252.80;;;21.62
76394;BMP180;65216;51.090;-115.352;2023-04-01T23:26:43;85251.60;;;21.64
76394;BMP180;65216;51.090;-115.352;2023-04-01T23:29:18;85259.60;;;21.62
76394;BMP180;65216;51.090;-115.352;2023-04-01T23:31:47;85257.20;;;21.60
76394;BMP180;65216;51.090;-115.352;2023-04-01T23:34:30;85264.20;;;21.60
76394;BMP180;65216;51.090;-115.352;2023-04-01T23:37:19;85252.80;;;21.60
76394;BMP180;65216;51.090;-115.352;2023-04-01T23:39:52;85260.20;;;21.60
76394;BMP180;65216;51.090;-115.352;2023-04-01T23:42:31;85261.20;;;21.60
76394;BMP180;65216;51.090;-115.352;2023-04-01T23:45:19;85251.80;;;21.60
76394;BMP180;65216;51.090;-115.352;2023-04-01T23:47:48;85264.00;;;21.60
76394;BMP180;65216;51.090;-115.352;2023-04-01T23:50:24;85266.40;;;21.60
76394;BMP180;65216;51.090;-115.352;2023-04-01T23:53:19;85263.00;;;21.60
76394;BMP180;65216;51.090;-115.352;2023-04-01T23:55:47;85263.80;;;21.60
76394;BMP180;65216;51.090;-115.352;2023-04-01T23:58:26;85252.40;;;21.60
